Time;durP1;ratioP1;P1;durP2;ratioP2;P2;SDS_P1;SDS_P2;PMS_P1;PMS_P2;Temp;Humidity;BMP_temperature;BMP_pressure;BME280_temperature;BME280_humidity;BME280_pressure;Samples;Min_cycle;Max_cycle;Signal;HPM_P1;HPM_P2
2023/10/28 00:00:17;;;;;;;11.18;3.58;;;;;;;;;;5027913;28;20105;-84
2023/10/28 00:02:45;;;;;;;9.77;3.42;;;;;;;;;;5028322;28;20018;-83
2023/10/28 00:05:11;;;;;;;7.80;3.20;;;;;;;;;;5033993;28;20082;-84
2023/10/28 00:07:36;;;;;;;9.10;3.35;;;;;;;;;;5029455;28;20484;-84
2023/10/28 00:10:07;;;;;;;11.80;3.40;;;;;;;;;;5035163;28;20037;-83
2023/10/28 00:12:33;;;;;;;8.45;2.92;;;;;;;;;;5030461;28;20057;-84
2023/10/28 00:14:59;;;;;;;7.95;3.10;;;;;;;;;;5028100;28;20037;-84
2023/10/28 00:17:24;;;;;;;8.82;3.38;;;;;;;;;;5026181;28;20033;-84
2023/10/28 00:19:50;;;;;;;10.38;3.38;;;;;;;;;;5031956;28;20171;-85
2023/10/28 00:22:17;;;;;;;8.60;2.97;;;;;;;;;;5036005;28;20037;-84
2023/10/28 00:24:42;;;;;;;8.90;3.00;;;;;;;;;;5030508;28;20032;-87
2023/10/28 00:27:09;;;;;;;9.02;3.25;;;;;;;;;;5028050;28;20025;-87
2023/10/28 00:29:35;;;;;;;9.48;2.92;;;;;;;;;;5030762;28;20481;-87
2023/10/28 00:32:00;;;;;;;8.98;3.08;;;;;;;;;;5032487;28;20033;-86
2023/10/28 00:34:26;;;;;;;9.10;3.67;;;;;;;;;;5031154;28;20033;-89
2023/10/28 00:36:51;;;;;;;10.50;2.95;;;;;;;;;;5033732;28;20032;-90
2023/10/28 00:39:17;;;;;;;9.70;3.65;;;;;;;;;;5029124;28;20079;-90
2023/10/28 00:41:43;;;;;;;10.27;3.55;;;;;;;;;;5029306;28;20081;-90
2023/10/28 00:44:09;;;;;;;8.60;2.80;;;;;;;;;;5031430;28;20056;-90
2023/10/28 00:46:35;;;;;;;8.18;2.80;;;;;;;;;;5032653;28;20025;-90
2023/10/28 00:49:00;;;;;;;7.13;2.97;;;;;;;;;;5026678;28;20051;-90
2023/10/28 00:51:26;;;;;;;8.30;2.85;;;;;;;;;;5032946;28;20028;-90
2023/10/28 00:53:52;;;;;;;8.45;3.20;;;;;;;;;;5033565;28;20064;-90
2023/10/28 00:56:19;;;;;;;7.63;2.92;;;;;;;;;;5032298;28;20397;-90
2023/10/28 00:58:45;;;;;;;6.45;2.80;;;;;;;;;;5024215;28;20022;-84
2023/10/28 01:01:13;;;;;;;9.73;2.95;;;;;;;;;;5032056;28;20037;-84
2023/10/28 01:03:40;;;;;;;7.05;2.83;;;;;;;;;;5033653;28;20026;-84
2023/10/28 01:06:09;;;;;;;11.35;3.38;;;;;;;;;;5034857;28;20061;-85
2023/10/28 01:08:35;;;;;;;8.82;2.92;;;;;;;;;;5036302;28;20393;-84
2023/10/28 01:11:01;;;;;;;9.07;3.00;;;;;;;;;;5033376;28;20035;-82
2023/10/28 01:13:27;;;;;;;9.75;3.22;;;;;;;;;;5044518;28;20388;-82
2023/10/28 01:15:52;;;;;;;10.20;3.20;;;;;;;;;;5045204;28;20029;-82
2023/10/28 01:18:18;;;;;;;6.30;2.72;;;;;;;;;;5035497;28;20033;-82
2023/10/28 01:20:44;;;;;;;10.75;3.15;;;;;;;;;;5033062;28;20540;-82
2023/10/28 01:23:10;;;;;;;8.55;2.53;;;;;;;;;;5035288;28;20041;-82
2023/10/28 01:25:35;;;;;;;7.85;2.83;;;;;;;;;;5033097;28;20540;-82
2023/10/28 01:28:01;;;;;;;8.57;3.22;;;;;;;;;;5034920;28;20026;-82
2023/10/28 01:30:27;;;;;;;6.28;3.03;;;;;;;;;;5029348;28;20021;-82
2023/10/28 01:32:52;;;;;;;10.48;3.00;;;;;;;;;;5029248;28;20032;-81
2023/10/28 01:35:18;;;;;;;8.32;2.50;;;;;;;;;;5025154;28;20417;-82
2023/10/28 01:37:43;;;;;;;7.72;3.42;;;;;;;;;;5027852;28;20566;-83
2023/10/28 01:40:13;;;;;;;8.38;2.92;;;;;;;;;;5032149;28;20086;-82
2023/10/28 01:42:39;;;;;;;6.75;2.50;;;;;;;;;;5029535;28;20030;-81
2023/10/28 01:45:06;;;;;;;7.95;3.08;;;;;;;;;;5037900;28;20037;-83
2023/10/28 01:47:31;;;;;;;8.77;2.63;;;;;;;;;;5032464;28;20037;-81
2023/10/28 01:49:57;;;;;;;8.85;2.72;;;;;;;;;;5026101;28;20052;-83
2023/10/28 01:52:23;;;;;;;9.30;2.78;;;;;;;;;;5033271;28;20033;-82
2023/10/28 01:54:49;;;;;;;6.30;2.63;;;;;;;;;;5031926;28;20495;-83
2023/10/28 01:57:14;;;;;;;10.20;3.03;;;;;;;;;;5051241;28;20037;-82
2023/10/28 01:59:40;;;;;;;6.47;2.78;;;;;;;;;;5028867;28;20377;-82
2023/10/28 02:02:07;;;;;;;6.95;2.60;;;;;;;;;;5026021;28;20025;-82
2023/10/28 02:04:33;;;;;;;7.18;2.30;;;;;;;;;;5025753;28;20025;-82
2023/10/28 02:06:59;;;;;;;8.15;2.97;;;;;;;;;;5039956;28;20034;-82
2023/10/28 02:09:26;;;;;;;6.95;2.40;;;;;;;;;;5031328;28;20052;-83
2023/10/28 02:11:52;;;;;;;6.45;2.30;;;;;;;;;;5030246;28;20021;-82
2023/10/28 02:14:18;;;;;;;7.32;2.30;;;;;;;;;;5035259;28;20068;-82
2023/10/28 02:16:43;;;;;;;7.43;2.58;;;;;;;;;;5031061;28;20057;-83
2023/10/28 02:19:10;;;;;;;7.60;2.13;;;;;;;;;;5037782;28;20030;-84
2023/10/28 02:21:35;;;;;;;6.97;2.40;;;;;;;;;;5027633;28;20209;-81
2023/10/28 02:24:03;;;;;;;5.15;2.10;;;;;;;;;;5044765;28;20485;-83
2023/10/28 02:26:28;;;;;;;6.53;2.22;;;;;;;;;;5032488;28;20052;-81
2023/10/28 02:28:54;;;;;;;5.70;2.20;;;;;;;;;;5024370;28;20064;-82
2023/10/28 02:31:19;;;;;;;5.43;2.20;;;;;;;;;;5033888;28;20117;-81
2023/10/28 02:33:44;;;;;;;6.22;2.08;;;;;;;;;;5032127;28;20094;-87
2023/10/28 02:36:10;;;;;;;8.88;2.13;;;;;;;;;;5031461;28;20124;-90
2023/10/28 02:38:36;;;;;;;4.50;1.98;;;;;;;;;;5037360;28;20033;-89
2023/10/28 02:41:04;;;;;;;4.68;2.00;;;;;;;;;;5032984;28;20428;-89
2023/10/28 02:43:30;;;;;;;4.60;1.88;;;;;;;;;;5032250;28;20021;-88
2023/10/28 02:45:55;;;;;;;5.45;2.00;;;;;;;;;;5023745;28;20025;-90
2023/10/28 02:48:20;;;;;;;6.97;1.85;;;;;;;;;;5037085;28;20035;-88
2023/10/28 02:50:46;;;;;;;3.30;1.52;;;;;;;;;;5027363;28;20037;-90
2023/10/28 02:53:11;;;;;;;3.53;1.88;;;;;;;;;;5033127;28;20440;-91
2023/10/28 02:55:37;;;;;;;4.63;1.85;;;;;;;;;;5049044;28;20033;-85
2023/10/28 02:58:04;;;;;;;6.20;1.90;;;;;;;;;;5028635;28;20498;-89
2023/10/28 03:00:30;;;;;;;6.03;1.92;;;;;;;;;;5029642;28;20037;-91
2023/10/28 03:02:57;;;;;;;4.65;1.58;;;;;;;;;;5045508;28;20033;-88
2023/10/28 03:05:24;;;;;;;3.20;1.40;;;;;;;;;;5026973;28;20881;-87
2023/10/28 03:07:52;;;;;;;4.35;1.75;;;;;;;;;;5028242;28;20065;-85
2023/10/28 03:10:17;;;;;;;2.97;1.40;;;;;;;;;;5028648;28;20393;-87
2023/10/28 03:12:43;;;;;;;3.70;1.20;;;;;;;;;;5031012;28;20021;-87
2023/10/28 03:15:10;;;;;;;5.90;1.60;;;;;;;;;;5028713;28;20121;-87
2023/10/28 03:17:36;;;;;;;4.38;1.50;;;;;;;;;;5030558;28;20033;-86
2023/10/28 03:20:03;;;;;;;3.90;1.50;;;;;;;;;;5026428;28;20155;-87
2023/10/28 03:22:29;;;;;;;4.25;1.73;;;;;;;;;;5025957;28;20022;-88
2023/10/28 03:24:54;;;;;;;7.43;1.90;;;;;;;;;;5024086;28;20091;-89
2023/10/28 03:27:19;;;;;;;3.67;1.58;;;;;;;;;;5027530;28;20027;-87
2023/10/28 03:29:45;;;;;;;4.03;1.50;;;;;;;;;;5029653;28;20061;-88
2023/10/28 03:32:11;;;;;;;3.50;1.50;;;;;;;;;;5025298;28;20022;-88
2023/10/28 03:34:36;;;;;;;2.45;1.38;;;;;;;;;;5026276;28;20026;-85
2023/10/28 03:37:02;;;;;;;5.72;1.70;;;;;;;;;;5025416;28;20052;-87
2023/10/28 03:39:28;;;;;;;4.65;1.42;;;;;;;;;;5026201;28;20375;-87
2023/10/28 03:41:53;;;;;;;4.75;1.55;;;;;;;;;;5027220;28;20032;-88
2023/10/28 03:44:19;;;;;;;3.33;1.50;;;;;;;;;;5027939;28;20380;-87
2023/10/28 03:46:45;;;;;;;4.30;1.70;;;;;;;;;;5025126;28;20030;-87
2023/10/28 03:49:11;;;;;;;5.45;1.63;;;;;;;;;;5027419;28;20131;-87
2023/10/28 03:51:38;;;;;;;5.85;1.60;;;;;;;;;;5026927;28;20470;-88
2023/10/28 03:54:04;;;;;;;7.35;1.60;;;;;;;;;;5023085;28;20037;-88
2023/10/28 03:56:30;;;;;;;5.07;1.70;;;;;;;;;;5027179;28;20029;-86
2023/10/28 03:58:55;;;;;;;3.72;1.30;;;;;;;;;;5027989;28;20099;-86
2023/10/28 04:01:21;;;;;;;4.05;1.60;;;;;;;;;;5026941;28;20034;-88
2023/10/28 04:03:47;;;;;;;3.78;1.60;;;;;;;;;;5043044;28;20509;-81
2023/10/28 04:06:12;;;;;;;4.60;1.70;;;;;;;;;;5026102;28;20140;-83
2023/10/28 04:08:37;;;;;;;5.63;1.90;;;;;;;;;;5027394;28;20021;-82
2023/10/28 04:11:04;;;;;;;5.28;1.75;;;;;;;;;;5027923;28;20029;-83
2023/10/28 04:13:30;;;;;;;3.60;2.00;;;;;;;;;;5029405;28;20025;-90
2023/10/28 04:15:55;;;;;;;3.83;1.80;;;;;;;;;;5035115;28;20032;-90
2023/10/28 04:18:21;;;;;;;4.75;2.00;;;;;;;;;;5031529;28;20029;-89
2023/10/28 04:20:48;;;;;;;5.38;2.33;;;;;;;;;;5035460;28;20151;-90
2023/10/28 04:23:13;;;;;;;6.30;2.15;;;;;;;;;;5030935;28;21959;-91
2023/10/28 04:25:39;;;;;;;4.40;2.00;;;;;;;;;;5045782;28;20025;-91
2023/10/28 04:28:04;;;;;;;3.03;1.55;;;;;;;;;;5037891;28;20021;-85
2023/10/28 04:30:30;;;;;;;4.13;1.90;;;;;;;;;;5021582;28;20061;-83
2023/10/28 04:32:55;;;;;;;3.50;1.70;;;;;;;;;;5026678;28;20032;-88
2023/10/28 04:35:21;;;;;;;3.17;1.70;;;;;;;;;;5034997;28;20030;-88
2023/10/28 04:37:46;;;;;;;4.68;1.90;;;;;;;;;;5035770;28;20096;-87
2023/10/28 04:40:12;;;;;;;4.13;1.65;;;;;;;;;;5032605;28;20053;-88
2023/10/28 04:42:37;;;;;;;3.90;1.90;;;;;;;;;;5034595;28;20032;-87
2023/10/28 04:45:05;;;;;;;5.32;1.80;;;;;;;;;;5044953;28;20128;-87
2023/10/28 04:47:31;;;;;;;3.95;1.73;;;;;;;;;;5037604;28;20370;-87
2023/10/28 04:49:57;;;;;;;3.17;1.80;;;;;;;;;;5032266;28;20076;-87
2023/10/28 04:52:23;;;;;;;5.78;2.22;;;;;;;;;;5028543;28;20461;-88
2023/10/28 04:54:49;;;;;;;4.78;2.00;;;;;;;;;;5030612;28;20056;-84
2023/10/28 04:57:14;;;;;;;4.95;1.85;;;;;;;;;;5027748;28;20053;-84
2023/10/28 04:59:40;;;;;;;4.35;1.88;;;;;;;;;;5031308;28;20035;-84
2023/10/28 05:02:06;;;;;;;6.50;1.65;;;;;;;;;;5037439;28;20067;-84
2023/10/28 05:04:31;;;;;;;4.38;1.90;;;;;;;;;;5043430;28;20052;-84
2023/10/28 05:06:56;;;;;;;7.03;2.38;;;;;;;;;;5039820;28;20032;-84
2023/10/28 05:09:22;;;;;;;4.07;1.58;;;;;;;;;;5025777;28;20413;-84
2023/10/28 05:11:54;;;;;;;4.97;1.90;;;;;;;;;;5027762;28;20067;-84
2023/10/28 05:14:20;;;;;;;5.75;2.00;;;;;;;;;;5044162;28;20026;-84
2023/10/28 05:16:46;;;;;;;5.05;1.85;;;;;;;;;;5033298;28;20108;-84
2023/10/28 05:19:12;;;;;;;4.28;1.70;;;;;;;;;;5032162;28;20108;-84
2023/10/28 05:21:37;;;;;;;4.20;1.58;;;;;;;;;;5040589;28;20050;-84
2023/10/28 05:24:03;;;;;;;4.45;1.98;;;;;;;;;;5034653;28;20032;-84
2023/10/28 05:26:28;;;;;;;5.43;1.88;;;;;;;;;;5031420;28;20060;-84
2023/10/28 05:28:54;;;;;;;3.85;2.00;;;;;;;;;;5030255;28;20120;-84
2023/10/28 05:31:20;;;;;;;5.85;2.00;;;;;;;;;;5029600;28;20025;-84
2023/10/28 05:33:46;;;;;;;4.50;2.60;;;;;;;;;;5042492;28;20033;-84
2023/10/28 05:36:11;;;;;;;4.97;1.90;;;;;;;;;;5027635;28;20026;-83
2023/10/28 05:38:36;;;;;;;3.38;1.90;;;;;;;;;;5029639;28;20022;-84
2023/10/28 05:41:02;;;;;;;3.55;1.70;;;;;;;;;;5031023;28;20029;-84
2023/10/28 05:43:27;;;;;;;5.90;1.98;;;;;;;;;;5032443;28;20045;-90
2023/10/28 05:45:53;;;;;;;4.10;1.80;;;;;;;;;;5028973;28;20037;-91
2023/10/28 05:48:18;;;;;;;3.85;1.88;;;;;;;;;;5027137;28;20057;-89
2023/10/28 05:50:44;;;;;;;3.25;1.80;;;;;;;;;;5035180;28;20018;-91
2023/10/28 05:53:09;;;;;;;3.13;1.80;;;;;;;;;;5031726;28;20037;-91
2023/10/28 05:55:34;;;;;;;4.45;1.90;;;;;;;;;;5032543;28;20029;-90
2023/10/28 05:58:00;;;;;;;6.50;1.90;;;;;;;;;;5028454;28;20025;-92
2023/10/28 06:00:25;;;;;;;3.17;1.70;;;;;;;;;;5030462;28;20036;-90
2023/10/28 06:02:51;;;;;;;4.78;1.85;;;;;;;;;;5035429;28;20068;-91
2023/10/28 06:05:16;;;;;;;3.97;1.80;;;;;;;;;;5036465;28;20021;-91
2023/10/28 06:07:47;;;;;;;4.80;1.77;;;;;;;;;;5030356;28;20045;-90
2023/10/28 06:10:13;;;;;;;5.07;1.90;;;;;;;;;;5034641;28;20045;-91
2023/10/28 06:12:39;;;;;;;4.63;1.73;;;;;;;;;;5034269;28;20462;-90
2023/10/28 06:15:04;;;;;;;5.07;1.73;;;;;;;;;;5030834;28;20025;-90
2023/10/28 06:17:30;;;;;;;4.55;1.80;;;;;;;;;;5036929;28;20108;-90
2023/10/28 06:19:55;;;;;;;6.07;2.25;;;;;;;;;;5035341;28;20034;-89
2023/10/28 06:22:21;;;;;;;3.70;1.80;;;;;;;;;;5047326;28;20108;-91
2023/10/28 06:24:49;;;;;;;6.43;2.80;;;;;;;;;;5036141;28;20467;-89
2023/10/28 06:27:14;;;;;;;4.55;1.83;;;;;;;;;;5033537;28;20033;-91
2023/10/28 06:29:40;;;;;;;5.57;1.85;;;;;;;;;;5036136;28;20030;-90
2023/10/28 06:32:07;;;;;;;4.60;1.90;;;;;;;;;;5034199;28;20060;-90
2023/10/28 06:34:35;;;;;;;4.78;2.00;;;;;;;;;;5032115;28;20127;-91
2023/10/28 06:37:04;;;;;;;4.50;1.70;;;;;;;;;;5033929;28;20036;-90
2023/10/28 06:39:33;;;;;;;4.65;1.48;;;;;;;;;;5029765;28;20032;-83
2023/10/28 06:41:58;;;;;;;3.83;1.50;;;;;;;;;;5024830;28;20034;-84
2023/10/28 06:44:23;;;;;;;4.55;1.80;;;;;;;;;;5030387;28;20151;-83
2023/10/28 06:46:49;;;;;;;6.85;2.13;;;;;;;;;;5028075;28;20022;-83
2023/10/28 06:49:14;;;;;;;3.58;1.58;;;;;;;;;;5028662;28;20036;-83
2023/10/28 06:51:40;;;;;;;4.82;1.98;;;;;;;;;;5033433;28;20027;-83
2023/10/28 06:54:06;;;;;;;4.57;1.80;;;;;;;;;;5042136;28;20044;-92
2023/10/28 06:56:32;;;;;;;3.58;1.60;;;;;;;;;;5033411;28;20025;-90
2023/10/28 06:58:57;;;;;;;3.42;1.60;;;;;;;;;;5032012;28;20064;-91
2023/10/28 07:01:22;;;;;;;3.47;1.80;;;;;;;;;;5033861;28;20021;-83
2023/10/28 07:03:49;;;;;;;5.22;1.63;;;;;;;;;;5026114;28;20112;-83
2023/10/28 07:06:16;;;;;;;5.68;2.00;;;;;;;;;;5027857;28;20024;-85
2023/10/28 07:08:42;;;;;;;4.60;2.00;;;;;;;;;;5029792;28;20084;-83
2023/10/28 07:11:07;;;;;;;5.57;1.70;;;;;;;;;;5035608;28;20429;-83
2023/10/28 07:13:33;;;;;;;4.53;1.70;;;;;;;;;;5034739;28;20037;-84
2023/10/28 07:16:02;;;;;;;3.95;1.40;;;;;;;;;;5024920;28;20482;-84
2023/10/28 07:18:29;;;;;;;5.72;1.90;;;;;;;;;;5022956;28;20034;-83
2023/10/28 07:20:55;;;;;;;5.78;1.52;;;;;;;;;;5027162;28;20489;-83
2023/10/28 07:23:21;;;;;;;4.55;1.75;;;;;;;;;;5025392;28;20060;-83
2023/10/28 07:25:46;;;;;;;4.70;1.80;;;;;;;;;;5024340;28;20044;-83
2023/10/28 07:28:14;;;;;;;4.63;1.40;;;;;;;;;;5025738;28;20029;-83
2023/10/28 07:30:50;;;;;;;4.45;1.60;;;;;;;;;;5025085;28;20032;-83
2023/10/28 07:33:20;;;;;;;5.28;1.75;;;;;;;;;;5026955;28;20027;-83
2023/10/28 07:35:47;;;;;;;4.75;1.50;;;;;;;;;;5028661;28;20478;-84
2023/10/28 07:38:13;;;;;;;5.68;2.03;;;;;;;;;;5028663;28;20021;-83
2023/10/28 07:40:42;;;;;;;5.28;1.50;;;;;;;;;;5029003;28;20025;-83
2023/10/28 07:43:10;;;;;;;6.38;1.50;;;;;;;;;;5025754;28;20441;-83
2023/10/28 07:45:36;;;;;;;4.03;1.55;;;;;;;;;;5028973;28;20098;-84
2023/10/28 07:48:01;;;;;;;6.07;1.50;;;;;;;;;;5028584;28;20030;-83
2023/10/28 07:50:26;;;;;;;5.82;1.60;;;;;;;;;;5031680;28;20385;-81
2023/10/28 07:52:52;;;;;;;4.25;1.60;;;;;;;;;;5032427;28;20047;-82
2023/10/28 07:55:17;;;;;;;5.80;1.42;;;;;;;;;;5033219;28;20033;-81
2023/10/28 07:57:43;;;;;;;8.25;1.70;;;;;;;;;;5030952;28;20021;-82
2023/10/28 08:00:11;;;;;;;3.35;1.55;;;;;;;;;;5028212;28;20029;-80
2023/10/28 08:02:37;;;;;;;5.20;1.60;;;;;;;;;;5027566;28;20494;-84
2023/10/28 08:05:04;;;;;;;4.45;1.35;;;;;;;;;;5039140;28;20115;-84
2023/10/28 08:07:29;;;;;;;4.07;1.40;;;;;;;;;;5038734;28;20722;-83
2023/10/28 08:09:56;;;;;;;6.05;1.95;;;;;;;;;;5028708;28;20104;-84
2023/10/28 08:12:22;;;;;;;9.25;1.50;;;;;;;;;;5030594;28;20022;-83
2023/10/28 08:14:48;;;;;;;4.85;1.50;;;;;;;;;;5034220;28;20499;-84
2023/10/28 08:17:13;;;;;;;10.48;1.60;;;;;;;;;;5033497;28;20029;-84
2023/10/28 08:19:40;;;;;;;4.68;1.45;;;;;;;;;;5032954;28;20029;-83
2023/10/28 08:22:06;;;;;;;6.25;1.73;;;;;;;;;;5029074;28;20473;-83
2023/10/28 08:24:31;;;;;;;5.35;1.42;;;;;;;;;;5033199;28;20040;-84
2023/10/28 08:26:56;;;;;;;7.53;2.05;;;;;;;;;;5032416;28;20607;-83
2023/10/28 08:29:23;;;;;;;5.57;1.85;;;;;;;;;;5030443;28;20029;-88
2023/10/28 08:31:49;;;;;;;4.38;1.40;;;;;;;;;;5029705;28;20017;-88
2023/10/28 08:34:15;;;;;;;8.52;1.40;;;;;;;;;;5030232;28;20082;-88
2023/10/28 08:36:41;;;;;;;6.32;1.60;;;;;;;;;;5027323;28;20022;-88
2023/10/28 08:39:07;;;;;;;5.30;1.50;;;;;;;;;;5027718;28;20444;-83
2023/10/28 08:41:34;;;;;;;5.93;1.58;;;;;;;;;;5027369;28;20094;-82
2023/10/28 08:44:04;;;;;;;5.15;1.88;;;;;;;;;;5031988;28;20102;-82
2023/10/28 08:46:30;;;;;;;6.90;1.50;;;;;;;;;;5030658;28;20075;-82
2023/10/28 08:48:58;;;;;;;4.53;1.40;;;;;;;;;;5027677;28;20034;-81
2023/10/28 08:51:24;;;;;;;4.97;1.40;;;;;;;;;;5041590;28;20030;-83
2023/10/28 08:54:04;;;;;;;5.20;1.45;;;;;;;;;;5026216;28;20025;-81
2023/10/28 08:56:32;;;;;;;9.95;1.80;;;;;;;;;;5026369;28;20107;-81
2023/10/28 08:58:58;;;;;;;8.93;1.83;;;;;;;;;;5029897;28;20072;-81
2023/10/28 09:01:26;;;;;;;4.20;1.08;;;;;;;;;;5029015;28;20045;-83
2023/10/28 09:03:55;;;;;;;4.25;1.40;;;;;;;;;;5033147;28;20025;-82
2023/10/28 09:06:21;;;;;;;4.47;1.45;;;;;;;;;;5033955;28;20132;-81
2023/10/28 09:08:46;;;;;;;6.05;1.55;;;;;;;;;;5031976;28;20112;-82
2023/10/28 09:11:12;;;;;;;10.10;1.85;;;;;;;;;;5050869;28;20025;-81
2023/10/28 09:13:41;;;;;;;7.43;1.50;;;;;;;;;;5032776;28;20028;-83
2023/10/28 09:16:08;;;;;;;5.20;1.40;;;;;;;;;;5031165;28;20037;-84
2023/10/28 09:18:41;;;;;;;5.63;1.50;;;;;;;;;;5031240;28;20377;-84
2023/10/28 09:21:10;;;;;;;6.18;1.50;;;;;;;;;;5031868;28;20033;-83
2023/10/28 09:23:36;;;;;;;5.90;1.80;;;;;;;;;;5026368;28;20052;-84
2023/10/28 09:26:02;;;;;;;4.95;1.33;;;;;;;;;;5043694;28;20030;-84
2023/10/28 09:28:27;;;;;;;8.18;1.70;;;;;;;;;;5028272;28;20498;-84
2023/10/28 09:30:53;;;;;;;6.97;2.15;;;;;;;;;;5027773;28;20627;-83
2023/10/28 09:33:19;;;;;;;8.20;1.42;;;;;;;;;;5012932;28;20018;-83
2023/10/28 09:35:45;;;;;;;6.20;2.00;;;;;;;;;;5022536;28;20033;-90
2023/10/28 09:38:11;;;;;;;6.60;1.45;;;;;;;;;;5023414;28;20083;-91
2023/10/28 09:40:39;;;;;;;6.60;1.70;;;;;;;;;;5039327;28;20041;-90
2023/10/28 09:43:12;;;;;;;5.57;1.23;;;;;;;;;;5023003;28;20389;-88
2023/10/28 09:45:38;;;;;;;5.40;1.60;;;;;;;;;;5042054;28;20032;-89
2023/10/28 09:48:16;;;;;;;4.30;1.20;;;;;;;;;;5019224;28;20025;-89
2023/10/28 09:50:48;;;;;;;6.63;1.60;;;;;;;;;;5031099;28;20128;-92
2023/10/28 09:53:18;;;;;;;8.65;1.63;;;;;;;;;;5033824;28;20029;-93
2023/10/28 09:55:45;;;;;;;5.50;1.48;;;;;;;;;;5029955;28;20029;-91
2023/10/28 09:58:45;;;;;;;5.75;1.60;;;;;;;;;;5018747;28;20029;-91
2023/10/28 10:01:27;;;;;;;7.53;1.67;;;;;;;;;;5034881;28;20317;-92
2023/10/28 10:04:25;;;;;;;10.57;1.60;;;;;;;;;;5036350;28;20436;-90
2023/10/28 10:06:51;;;;;;;8.18;1.50;;;;;;;;;;5029561;28;20064;-89
2023/10/28 10:09:18;;;;;;;5.80;1.50;;;;;;;;;;5027038;28;20037;-89
2023/10/28 10:11:44;;;;;;;5.97;1.50;;;;;;;;;;5023318;28;20021;-93
2023/10/28 10:14:18;;;;;;;6.32;1.52;;;;;;;;;;5020223;28;20029;-86
2023/10/28 10:16:54;;;;;;;6.75;1.52;;;;;;;;;;5027232;28;20064;-90
2023/10/28 10:19:33;;;;;;;8.27;1.75;;;;;;;;;;5022444;28;20033;-91
2023/10/28 10:22:02;;;;;;;7.72;1.40;;;;;;;;;;5025713;28;20111;-93
2023/10/28 10:24:32;;;;;;;6.15;1.50;;;;;;;;;;5020648;28;20026;-83
2023/10/28 10:26:59;;;;;;;5.63;1.48;;;;;;;;;;5021192;28;20045;-83
2023/10/28 10:29:29;;;;;;;7.05;1.50;;;;;;;;;;5025502;28;20132;-85
2023/10/28 10:31:56;;;;;;;5.25;1.60;;;;;;;;;;5021588;28;20076;-82
2023/10/28 10:34:39;;;;;;;6.70;1.60;;;;;;;;;;5025668;28;20033;-89
2023/10/28 10:37:06;;;;;;;5.57;1.50;;;;;;;;;;5044740;28;20029;-89
2023/10/28 10:39:46;;;;;;;3.70;1.20;;;;;;;;;;5023627;28;20068;-94
2023/10/28 10:42:12;;;;;;;4.85;1.30;;;;;;;;;;5025301;28;20052;-89
2023/10/28 10:44:38;;;;;;;5.85;1.30;;;;;;;;;;5025024;28;20029;-88
2023/10/28 10:47:08;;;;;;;5.28;1.38;;;;;;;;;;5023809;28;20078;-87
2023/10/28 10:49:35;;;;;;;4.90;1.30;;;;;;;;;;5014629;28;20029;-87
2023/10/28 10:52:05;;;;;;;3.83;1.20;;;;;;;;;;5023918;28;20426;-87
2023/10/28 10:54:39;;;;;;;6.45;1.48;;;;;;;;;;5021342;28;20028;-87
2023/10/28 10:57:06;;;;;;;6.20;1.27;;;;;;;;;;5017985;28;20462;-87
2023/10/28 10:59:40;;;;;;;5.65;1.27;;;;;;;;;;5011800;28;20033;-86
2023/10/28 11:02:07;;;;;;;4.70;1.33;;;;;;;;;;5013826;28;20122;-87
2023/10/28 11:04:36;;;;;;;4.03;1.42;;;;;;;;;;5012761;28;20028;-86
2023/10/28 11:07:05;;;;;;;7.53;1.30;;;;;;;;;;5015173;28;20112;-86
2023/10/28 11:09:32;;;;;;;5.53;1.20;;;;;;;;;;5011331;28;20021;-86
2023/10/28 11:11:57;;;;;;;6.97;1.50;;;;;;;;;;5012091;28;20029;-85
2023/10/28 11:14:26;;;;;;;6.30;1.80;;;;;;;;;;5015483;28;20269;-86
2023/10/28 11:16:52;;;;;;;6.40;1.58;;;;;;;;;;5012875;28;20022;-87
2023/10/28 11:19:18;;;;;;;6.38;1.60;;;;;;;;;;5013295;28;21031;-87
2023/10/28 11:21:44;;;;;;;6.45;1.48;;;;;;;;;;5010197;28;20037;-86
2023/10/28 11:24:14;;;;;;;7.10;1.60;;;;;;;;;;5013798;28;20417;-86
2023/10/28 11:26:39;;;;;;;7.53;1.98;;;;;;;;;;5033733;28;20025;-85
2023/10/28 11:29:06;;;;;;;4.20;1.77;;;;;;;;;;5019192;28;20535;-87
2023/10/28 11:31:33;;;;;;;6.40;1.45;;;;;;;;;;5017636;28;20029;-88
2023/10/28 11:33:59;;;;;;;5.28;1.50;;;;;;;;;;5016342;28;20777;-87
2023/10/28 11:36:26;;;;;;;6.22;1.55;;;;;;;;;;5023267;28;20029;-87
2023/10/28 11:38:51;;;;;;;7.90;1.48;;;;;;;;;;5013006;28;20036;-85
2023/10/28 11:41:17;;;;;;;6.80;1.77;;;;;;;;;;5018290;28;20033;-87
2023/10/28 11:43:42;;;;;;;8.27;1.60;;;;;;;;;;5016237;28;20103;-87
2023/10/28 11:46:08;;;;;;;6.53;1.55;;;;;;;;;;5018475;28;20037;-87
2023/10/28 11:48:34;;;;;;;5.32;1.50;;;;;;;;;;5020487;28;20026;-87
2023/10/28 11:51:00;;;;;;;8.13;1.85;;;;;;;;;;5025681;28;20071;-87
2023/10/28 11:53:29;;;;;;;5.38;1.70;;;;;;;;;;5023599;28;20030;-87
2023/10/28 11:55:55;;;;;;;7.88;1.80;;;;;;;;;;5014507;28;20040;-87
2023/10/28 11:58:24;;;;;;;6.22;1.83;;;;;;;;;;5014456;28;20038;-87
2023/10/28 12:00:53;;;;;;;7.68;1.60;;;;;;;;;;5026040;28;20560;-86
2023/10/28 12:03:19;;;;;;;6.35;1.52;;;;;;;;;;5021227;28;20477;-89
2023/10/28 12:05:44;;;;;;;11.00;1.80;;;;;;;;;;5019502;28;20033;-91
2023/10/28 12:08:11;;;;;;;6.82;2.08;;;;;;;;;;5017629;28;20018;-92
2023/10/28 12:10:43;;;;;;;9.10;1.60;;;;;;;;;;5018843;28;20031;-91
2023/10/28 12:13:08;;;;;;;11.20;1.98;;;;;;;;;;5018658;28;20032;-84
2023/10/28 12:15:34;;;;;;;5.88;1.52;;;;;;;;;;5020114;28;20034;-84
2023/10/28 12:17:59;;;;;;;9.20;1.77;;;;;;;;;;5013344;28;20060;-85
2023/10/28 12:20:24;;;;;;;6.78;1.65;;;;;;;;;;5031207;28;20040;-85
2023/10/28 12:22:52;;;;;;;10.52;2.30;;;;;;;;;;5018217;28;20030;-84
2023/10/28 12:25:18;;;;;;;9.93;1.80;;;;;;;;;;5010516;28;20505;-84
2023/10/28 12:27:44;;;;;;;8.10;1.80;;;;;;;;;;5013050;28;20025;-84
2023/10/28 12:30:09;;;;;;;8.77;1.60;;;;;;;;;;5014926;28;20052;-84
2023/10/28 12:32:35;;;;;;;11.95;2.08;;;;;;;;;;5030188;28;20061;-84
2023/10/28 12:35:01;;;;;;;9.77;2.15;;;;;;;;;;5023998;28;20087;-84
2023/10/28 12:37:29;;;;;;;9.10;1.90;;;;;;;;;;5019691;28;20380;-86
2023/10/28 12:39:55;;;;;;;9.02;1.98;;;;;;;;;;5021202;28;20558;-85
2023/10/28 12:42:20;;;;;;;10.20;2.05;;;;;;;;;;5015262;28;20029;-84
2023/10/28 12:44:46;;;;;;;12.32;2.58;;;;;;;;;;5021997;28;20125;-83
2023/10/28 12:47:12;;;;;;;9.60;1.63;;;;;;;;;;5022116;28;20441;-84
2023/10/28 12:49:40;;;;;;;6.10;1.67;;;;;;;;;;5026097;28;20133;-85
2023/10/28 12:52:09;;;;;;;14.40;2.40;;;;;;;;;;5007038;28;20473;-86
2023/10/28 12:54:35;;;;;;;12.02;1.90;;;;;;;;;;5020092;28;20468;-84
2023/10/28 12:57:01;;;;;;;12.05;1.92;;;;;;;;;;5013291;28;20030;-85
2023/10/28 12:59:27;;;;;;;10.68;2.25;;;;;;;;;;5009592;28;20040;-85
2023/10/28 13:01:54;;;;;;;11.85;2.10;;;;;;;;;;5021679;28;20397;-83
2023/10/28 13:04:22;;;;;;;11.38;2.53;;;;;;;;;;5020727;28;20562;-85
2023/10/28 13:06:48;;;;;;;12.30;2.00;;;;;;;;;;5021257;28;20029;-83
2023/10/28 13:09:13;;;;;;;8.77;2.15;;;;;;;;;;5014478;28;20071;-84
2023/10/28 13:11:39;;;;;;;9.48;2.20;;;;;;;;;;5022282;28;20561;-83
2023/10/28 13:14:06;;;;;;;12.18;2.88;;;;;;;;;;5026010;28;20036;-89
2023/10/28 13:16:34;;;;;;;10.48;1.90;;;;;;;;;;5025732;28;20138;-89
2023/10/28 13:19:00;;;;;;;10.95;2.67;;;;;;;;;;5022264;28;20025;-87
2023/10/28 13:21:26;;;;;;;11.13;2.33;;;;;;;;;;5023658;28;20033;-88
2023/10/28 13:23:52;;;;;;;9.75;2.63;;;;;;;;;;5024462;28;20025;-86
2023/10/28 13:26:17;;;;;;;9.35;2.17;;;;;;;;;;5019587;28;20040;-87
2023/10/28 13:28:47;;;;;;;8.90;2.20;;;;;;;;;;5021819;28;21903;-87
2023/10/28 13:31:15;;;;;;;10.00;2.08;;;;;;;;;;5015246;28;20025;-85
2023/10/28 13:33:41;;;;;;;9.77;2.10;;;;;;;;;;5013423;28;20026;-82
2023/10/28 13:36:07;;;;;;;12.57;2.70;;;;;;;;;;5016288;28;20118;-83
2023/10/28 13:38:32;;;;;;;10.48;1.85;;;;;;;;;;5044846;28;20033;-83
2023/10/28 13:40:58;;;;;;;9.25;2.55;;;;;;;;;;5028452;28;20466;-82
2023/10/28 13:43:23;;;;;;;10.90;2.28;;;;;;;;;;5028902;28;20021;-82
2023/10/28 13:45:48;;;;;;;9.82;2.08;;;;;;;;;;5021049;28;20029;-82
2023/10/28 13:48:15;;;;;;;12.32;2.40;;;;;;;;;;5026012;28;20053;-82
2023/10/28 13:50:41;;;;;;;10.88;1.85;;;;;;;;;;5029560;28;20381;-82
2023/10/28 13:53:06;;;;;;;11.25;1.85;;;;;;;;;;5032129;28;20033;-82
2023/10/28 13:55:32;;;;;;;13.20;2.40;;;;;;;;;;5022838;28;20412;-81
2023/10/28 13:57:58;;;;;;;10.68;1.88;;;;;;;;;;5029202;28;20558;-82
2023/10/28 14:00:26;;;;;;;10.93;2.10;;;;;;;;;;5032555;28;20034;-82
2023/10/28 14:02:55;;;;;;;11.52;3.60;;;;;;;;;;5032412;28;20029;-82
2023/10/28 14:05:21;;;;;;;13.88;4.38;;;;;;;;;;5048337;28;20033;-82
2023/10/28 14:07:46;;;;;;;8.50;2.20;;;;;;;;;;5032591;28;20029;-82
2023/10/28 14:10:12;;;;;;;12.98;2.90;;;;;;;;;;5031472;28;20029;-81
2023/10/28 14:12:40;;;;;;;10.70;3.00;;;;;;;;;;5031982;28;20112;-82
2023/10/28 14:15:07;;;;;;;10.68;2.65;;;;;;;;;;5046735;28;20409;-82
2023/10/28 14:17:33;;;;;;;11.52;2.65;;;;;;;;;;5032746;28;20408;-82
2023/10/28 14:20:03;;;;;;;10.60;2.65;;;;;;;;;;5029243;28;20038;-82
2023/10/28 14:22:29;;;;;;;6.72;1.70;;;;;;;;;;5031309;28;20036;-81
2023/10/28 14:24:57;;;;;;;11.00;1.98;;;;;;;;;;5031080;28;20025;-82
2023/10/28 14:27:23;;;;;;;13.65;2.70;;;;;;;;;;5033902;28;20025;-84
2023/10/28 14:29:49;;;;;;;8.38;2.50;;;;;;;;;;5029951;28;20025;-84
2023/10/28 14:32:17;;;;;;;10.52;2.22;;;;;;;;;;5030183;28;20021;-83
2023/10/28 14:34:46;;;;;;;9.88;2.20;;;;;;;;;;5037271;28;20159;-83
2023/10/28 14:37:11;;;;;;;10.98;2.13;;;;;;;;;;5029728;28;20025;-82